createdAt,value
2023-01-30T00:02:01.296Z,20.87
2023-01-30T00:04:59.082Z,17.17
2023-01-30T00:07:56.849Z,17.77
2023-01-30T00:10:54.795Z,17.63
2023-01-30T00:13:53.127Z,15.50
2023-01-30T00:16:50.908Z,13.77
2023-01-30T00:19:48.555Z,12.47
2023-01-30T00:22:59.208Z,10.80
2023-01-30T00:25:58.363Z,10.43
2023-01-30T00:28:56.158Z,11.57
2023-01-30T00:31:53.877Z,8.40
2023-01-30T00:34:51.637Z,8.90
2023-01-30T00:37:49.313Z,9.53
2023-01-30T00:40:48.315Z,9.17
2023-01-30T00:44:01.397Z,9.13
2023-01-30T00:50:04.233Z,8.90
2023-01-30T00:53:01.994Z,8.57
2023-01-30T00:55:59.746Z,9.43
2023-01-30T00:58:57.511Z,10.50
2023-01-30T01:01:55.244Z,9.17
2023-01-30T01:04:53.131Z,9.40
2023-01-30T01:07:50.818Z,9.13
2023-01-30T01:10:48.623Z,11.03
2023-01-30T01:13:46.334Z,11.55
2023-01-30T01:16:44.091Z,11.07
2023-01-30T01:19:41.873Z,12.93
2023-01-30T01:22:40.112Z,11.15
2023-01-30T01:25:38.229Z,11.65
2023-01-30T01:28:36.076Z,10.15
2023-01-30T01:31:33.850Z,11.15
2023-01-30T01:34:31.701Z,9.98
2023-01-30T01:37:29.418Z,10.23
2023-01-30T01:40:42.481Z,9.98
2023-01-30T01:46:59.960Z,9.50
2023-01-30T01:49:57.661Z,9.05
2023-01-30T01:52:58.438Z,9.48
2023-01-30T01:56:00.407Z,10.32
2023-01-30T01:59:12.861Z,11.80
2023-01-30T02:02:13.437Z,10.52
2023-01-30T02:05:13.290Z,10.85
2023-01-30T02:08:16.513Z,10.98
2023-01-30T02:11:22.810Z,11.35
2023-01-30T02:14:22.362Z,9.87
2023-01-30T02:17:21.091Z,10.87
2023-01-30T02:20:43.830Z,10.73
2023-01-30T02:27:29.766Z,25.57
2023-01-30T02:30:58.246Z,27.93
2023-01-30T02:34:21.655Z,28.90
2023-01-30T02:37:50.099Z,25.40
2023-01-30T02:41:18.285Z,24.83
2023-01-30T02:44:34.491Z,32.07
2023-01-30T02:47:45.712Z,26.30
2023-01-30T02:50:49.871Z,21.47
2023-01-30T02:53:49.086Z,20.83
2023-01-30T02:56:50.548Z,19.10
2023-01-30T02:59:51.986Z,18.77
2023-01-30T03:03:10.355Z,17.23
2023-01-30T03:06:31.641Z,16.90
2023-01-30T03:09:43.079Z,16.20
2023-01-30T03:13:07.643Z,18.27
2023-01-30T03:16:13.523Z,16.35
2023-01-30T03:19:13.316Z,15.40
2023-01-30T03:22:11.108Z,16.80
2023-01-30T03:25:09.698Z,16.75
2023-01-30T03:28:08.917Z,16.58
2023-01-30T03:31:07.138Z,17.45
2023-01-30T03:34:05.074Z,16.17
2023-01-30T03:37:03.342Z,18.40
2023-01-30T03:40:03.367Z,19.73
2023-01-30T03:43:01.753Z,19.45
2023-01-30T03:45:59.711Z,20.45
2023-01-30T03:48:57.399Z,19.17
2023-01-30T03:51:55.203Z,18.15
2023-01-30T03:54:53.048Z,19.15
2023-01-30T03:57:54.924Z,19.80
2023-01-30T04:00:54.866Z,17.92
2023-01-30T04:03:53.955Z,24.23
2023-01-30T04:06:51.587Z,31.88
2023-01-30T04:09:49.298Z,30.60
2023-01-30T04:12:47.733Z,25.08
2023-01-30T04:15:45.481Z,28.08
2023-01-30T04:18:43.456Z,31.08
2023-01-30T04:21:41.291Z,31.95
2023-01-30T04:24:39.116Z,29.98
2023-01-30T04:27:36.994Z,32.75
2023-01-30T04:30:34.722Z,27.85
2023-01-30T04:33:35.891Z,28.65
2023-01-30T04:36:33.660Z,34.03
2023-01-30T04:39:31.416Z,39.40
2023-01-30T04:42:29.070Z,36.95
2023-01-30T04:45:28.303Z,35.00
2023-01-30T04:48:26.838Z,33.13
2023-01-30T04:51:24.714Z,35.65
2023-01-30T04:54:22.511Z,38.58
2023-01-30T04:57:20.282Z,38.47
2023-01-30T05:00:18.672Z,44.90
2023-01-30T05:03:16.980Z,51.67
2023-01-30T05:06:14.630Z,62.22
2023-01-30T05:09:12.483Z,74.38
2023-01-30T05:12:10.316Z,91.18
2023-01-30T05:15:08.671Z,114.53
2023-01-30T05:18:06.388Z,142.90
2023-01-30T05:21:07.872Z,167.57
2023-01-30T05:24:05.981Z,175.38
2023-01-30T05:27:04.427Z,177.63
2023-01-30T05:30:02.266Z,174.90
2023-01-30T05:33:00.225Z,188.05
2023-01-30T05:35:58.704Z,186.93
2023-01-30T05:38:57.091Z,190.82
2023-01-30T05:41:54.782Z,186.90
2023-01-30T05:44:52.593Z,180.05
2023-01-30T05:47:56.277Z,176.45
2023-01-30T05:50:55.758Z,178.35
2023-01-30T05:53:53.776Z,193.18
2023-01-30T05:56:51.782Z,196.65
2023-01-30T05:59:49.551Z,187.85
2023-01-30T06:02:47.617Z,174.02
2023-01-30T06:05:45.880Z,181.48
2023-01-30T06:08:43.671Z,178.82
2023-01-30T06:11:41.364Z,176.98
2023-01-30T06:14:39.357Z,181.23
2023-01-30T06:17:37.181Z,173.38
2023-01-30T06:20:34.995Z,183.77
2023-01-30T06:23:32.738Z,180.18
2023-01-30T06:26:30.644Z,188.20
2023-01-30T06:29:28.442Z,172.40
2023-01-30T06:32:26.184Z,190.93
2023-01-30T06:35:23.899Z,178.70
2023-01-30T06:38:22.900Z,185.55
2023-01-30T06:41:20.819Z,182.23
2023-01-30T06:44:19.349Z,189.50
2023-01-30T06:47:17.213Z,183.18
2023-01-30T06:50:15.935Z,180.68
2023-01-30T06:53:13.798Z,177.80
2023-01-30T06:56:11.606Z,175.38
2023-01-30T06:59:09.342Z,171.13
2023-01-30T07:02:07.365Z,167.07
2023-01-30T07:05:08.434Z,161.05
2023-01-30T07:08:06.419Z,158.57
2023-01-30T07:11:05.826Z,155.80
2023-01-30T07:14:05.673Z,147.27
2023-01-30T07:17:04.060Z,151.98
2023-01-30T07:20:01.932Z,153.52
2023-01-30T07:22:59.778Z,153.93
2023-01-30T07:25:57.587Z,153.25
2023-01-30T07:28:55.405Z,155.88
2023-01-30T07:31:53.702Z,152.15
2023-01-30T07:34:51.486Z,151.85
2023-01-30T07:37:50.628Z,157.52
2023-01-30T07:40:48.300Z,154.55
2023-01-30T07:43:46.020Z,162.20
2023-01-30T07:46:43.730Z,152.02
2023-01-30T07:49:41.845Z,155.40
2023-01-30T07:52:40.077Z,148.02
2023-01-30T07:55:38.720Z,148.93
2023-01-30T07:58:37.305Z,152.80
2023-01-30T08:01:35.303Z,147.48
2023-01-30T08:04:33.407Z,147.57
2023-01-30T08:07:31.297Z,137.18
2023-01-30T08:10:29.005Z,140.93
2023-01-30T08:13:26.794Z,137.10
2023-01-30T08:16:24.509Z,131.93
2023-01-30T08:19:22.278Z,139.35
2023-01-30T08:22:20.084Z,139.18
2023-01-30T08:25:17.937Z,135.32
2023-01-30T08:28:15.621Z,132.32
2023-01-30T08:31:15.256Z,133.43
2023-01-30T08:34:13.203Z,133.50
2023-01-30T08:37:11.024Z,130.18
2023-01-30T08:40:10.549Z,127.93
2023-01-30T08:43:08.599Z,127.80
2023-01-30T08:46:06.469Z,121.75
2023-01-30T08:49:04.449Z,125.47
2023-01-30T08:52:02.335Z,119.93
2023-01-30T08:55:00.313Z,122.10
2023-01-30T08:57:58.061Z,117.53
2023-01-30T09:00:55.987Z,122.72
2023-01-30T09:03:53.698Z,121.57
2023-01-30T09:06:51.806Z,120.72
2023-01-30T09:09:49.505Z,119.05
2023-01-30T09:12:47.348Z,122.47
2023-01-30T09:15:46.260Z,121.47
2023-01-30T09:18:45.091Z,116.63
2023-01-30T09:21:42.780Z,116.38
2023-01-30T09:24:40.634Z,116.10
2023-01-30T09:27:38.353Z,120.93
2023-01-30T09:30:36.216Z,117.60
2023-01-30T09:33:34.117Z,118.13
2023-01-30T09:36:32.784Z,120.85
2023-01-30T09:39:30.810Z,114.68
2023-01-30T09:42:52.030Z,115.32
2023-01-30T09:46:05.968Z,116.93
2023-01-30T09:49:34.931Z,120.15
2023-01-30T09:52:51.591Z,114.28
2023-01-30T09:55:49.694Z,119.13
2023-01-30T09:58:58.879Z,118.63
2023-01-30T10:02:22.435Z,116.43
2023-01-30T10:05:20.573Z,119.90
2023-01-30T10:08:35.586Z,120.07
2023-01-30T10:11:55.886Z,116.60
2023-01-30T10:15:15.416Z,114.88
2023-01-30T10:18:37.417Z,114.45
2023-01-30T10:21:48.282Z,110.78
2023-01-30T10:25:03.707Z,116.55
2023-01-30T10:28:20.644Z,120.22
2023-01-30T10:31:23.575Z,118.65
2023-01-30T10:34:34.883Z,121.20
2023-01-30T10:37:50.157Z,123.32
2023-01-30T10:40:58.859Z,124.13
2023-01-30T10:44:13.995Z,126.28
2023-01-30T10:47:47.543Z,124.68
2023-01-30T10:51:12.220Z,122.72
2023-01-30T10:54:18.614Z,125.68
2023-01-30T10:57:42.160Z,133.40
2023-01-30T11:00:44.286Z,141.38
2023-01-30T11:03:50.836Z,140.30
2023-01-30T11:06:49.678Z,144.50
2023-01-30T11:09:49.714Z,148.15
2023-01-30T11:12:47.749Z,139.35
2023-01-30T11:15:48.816Z,147.07
2023-01-30T11:19:18.699Z,137.77
2023-01-30T11:22:15.277Z,140.55
2023-01-30T11:25:18.221Z,142.48
2023-01-30T11:28:20.031Z,141.05
2023-01-30T11:31:39.996Z,134.93
2023-01-30T11:34:39.307Z,139.02
2023-01-30T11:37:40.233Z,136.70
2023-01-30T11:40:41.437Z,140.70
2023-01-30T11:43:40.677Z,133.77
2023-01-30T11:46:41.523Z,133.77
2023-01-30T11:49:45.407Z,135.00
2023-01-30T11:52:46.289Z,135.10
2023-01-30T11:56:00.349Z,131.30
2023-01-30T11:59:04.218Z,135.57
2023-01-30T12:02:17.184Z,130.27
2023-01-30T12:08:45.007Z,124.18
2023-01-30T12:11:45.599Z,131.50
2023-01-30T12:14:49.920Z,129.63
2023-01-30T12:18:13.474Z,133.57
2023-01-30T12:21:44.825Z,123.68
2023-01-30T12:24:49.526Z,123.40
2023-01-30T12:28:04.412Z,130.45
2023-01-30T12:31:12.536Z,129.48
2023-01-30T12:34:11.236Z,131.02
2023-01-30T12:37:36.184Z,131.20
2023-01-30T12:40:51.902Z,130.43
2023-01-30T12:44:20.352Z,125.15
2023-01-30T12:47:44.188Z,130.43
2023-01-30T12:51:09.374Z,136.15
2023-01-30T12:54:29.412Z,133.75
2023-01-30T12:57:47.545Z,136.45
2023-01-30T13:01:07.139Z,135.13
2023-01-30T13:04:25.436Z,131.27
2023-01-30T13:07:39.199Z,132.48
2023-01-30T13:11:01.589Z,133.70
2023-01-30T13:14:11.562Z,130.30
2023-01-30T13:17:31.241Z,136.60
2023-01-30T13:20:58.118Z,129.02
2023-01-30T13:24:15.912Z,127.57
2023-01-30T13:27:20.636Z,128.27
2023-01-30T13:30:19.214Z,132.60
2023-01-30T13:33:37.312Z,128.35
2023-01-30T13:36:50.478Z,131.32
2023-01-30T13:40:00.770Z,130.15
2023-01-30T13:43:05.111Z,131.88
2023-01-30T13:46:08.708Z,132.55
2023-01-30T13:52:41.785Z,125.72
2023-01-30T13:55:49.343Z,124.13
2023-01-30T13:58:58.195Z,122.70
2023-01-30T14:02:18.143Z,125.97
2023-01-30T14:05:51.234Z,126.82
2023-01-30T14:08:55.388Z,119.75
2023-01-30T14:12:02.672Z,122.43
2023-01-30T14:15:04.602Z,121.63
2023-01-30T14:18:07.891Z,122.32
2023-01-30T14:21:23.017Z,118.72
2023-01-30T14:24:28.192Z,116.78
2023-01-30T14:27:32.462Z,112.82
2023-01-30T14:30:39.082Z,114.85
2023-01-30T14:33:50.082Z,114.68
2023-01-30T14:36:49.014Z,115.25
2023-01-30T14:39:54.011Z,106.57
2023-01-30T14:43:26.872Z,111.18
2023-01-30T14:46:42.105Z,114.75
2023-01-30T14:49:53.377Z,124.07
2023-01-30T14:52:57.341Z,121.30
2023-01-30T14:56:04.904Z,123.70
2023-01-30T14:59:08.107Z,131.93
2023-01-30T15:02:28.931Z,128.80
2023-01-30T15:05:34.453Z,134.35
2023-01-30T15:08:34.341Z,130.55
2023-01-30T15:11:34.586Z,132.95
2023-01-30T15:14:44.528Z,122.60
2023-01-30T15:18:08.574Z,113.85
2023-01-30T15:21:37.990Z,113.88
2023-01-30T15:25:01.570Z,106.07
2023-01-30T15:28:12.880Z,105.97
2023-01-30T15:31:16.156Z,100.45
2023-01-30T15:34:22.129Z,99.22
2023-01-30T15:37:37.967Z,97.57
2023-01-30T15:40:36.884Z,96.47
2023-01-30T15:43:54.183Z,92.63
2023-01-30T15:47:09.505Z,92.15
2023-01-30T15:50:10.400Z,90.68
2023-01-30T15:53:15.617Z,87.13
2023-01-30T15:56:24.417Z,94.07
2023-01-30T15:59:30.037Z,89.07
2023-01-30T16:02:33.763Z,94.30
2023-01-30T16:05:31.996Z,91.63
2023-01-30T16:08:31.905Z,105.30
2023-01-30T16:11:45.087Z,115.38
2023-01-30T16:14:42.887Z,114.82
2023-01-30T16:17:41.492Z,114.72
2023-01-30T16:21:02.021Z,104.72
2023-01-30T16:24:25.410Z,95.95
2023-01-30T16:27:32.768Z,92.90
2023-01-30T16:30:31.068Z,91.95
2023-01-30T16:33:36.516Z,92.55
2023-01-30T16:36:41.342Z,79.20
2023-01-30T16:39:41.335Z,70.10
2023-01-30T16:42:42.019Z,65.45
2023-01-30T16:46:19.754Z,60.78
2023-01-30T16:49:32.946Z,68.80
2023-01-30T16:52:47.001Z,84.03
2023-01-30T16:56:11.557Z,81.22
2023-01-30T16:59:20.603Z,83.70
2023-01-30T17:02:35.423Z,73.35
2023-01-30T17:05:41.903Z,72.00
2023-01-30T17:09:04.169Z,61.35
2023-01-30T17:12:22.995Z,57.15
2023-01-30T17:15:34.203Z,54.28
2023-01-30T17:18:33.314Z,52.10
2023-01-30T17:21:46.345Z,47.42
2023-01-30T17:24:48.366Z,39.22
2023-01-30T17:27:47.148Z,34.58
2023-01-30T17:30:46.739Z,32.63
2023-01-30T17:33:45.102Z,30.42
2023-01-30T17:36:44.480Z,35.85
2023-01-30T17:39:43.477Z,23.75
2023-01-30T17:42:41.293Z,27.58
2023-01-30T17:45:40.023Z,27.75
2023-01-30T17:48:37.888Z,25.63
2023-01-30T17:51:41.066Z,21.17
2023-01-30T17:54:39.679Z,19.48
2023-01-30T17:57:37.808Z,20.48
2023-01-30T18:00:35.696Z,16.77
2023-01-30T18:03:34.481Z,17.58
2023-01-30T18:06:33.952Z,17.23
2023-01-30T18:09:32.381Z,19.40
2023-01-30T18:12:30.103Z,19.75
2023-01-30T18:15:30.194Z,19.17
2023-01-30T18:18:31.272Z,19.13
2023-01-30T18:21:29.334Z,20.25
2023-01-30T18:24:28.650Z,16.70
2023-01-30T18:27:26.515Z,15.98
2023-01-30T18:30:25.466Z,16.27
2023-01-30T18:33:23.464Z,14.00
2023-01-30T18:36:22.162Z,13.52
2023-01-30T18:39:20.028Z,13.38
2023-01-30T18:42:17.968Z,12.02
2023-01-30T18:45:16.139Z,11.68
2023-01-30T18:48:14.474Z,13.32
2023-01-30T18:51:15.913Z,12.05
2023-01-30T18:54:14.246Z,13.00
2023-01-30T18:57:12.163Z,13.93
2023-01-30T19:00:11.043Z,32.08
2023-01-30T19:03:09.618Z,25.13
2023-01-30T19:06:13.734Z,18.63
2023-01-30T19:09:16.549Z,23.08
2023-01-30T19:12:29.972Z,21.52
2023-01-30T19:15:27.938Z,22.65
2023-01-30T19:18:29.262Z,24.80
2023-01-30T19:21:28.210Z,21.98
2023-01-30T19:24:26.548Z,21.98
2023-01-30T19:27:24.633Z,19.98
2023-01-30T19:30:23.199Z,23.08
2023-01-30T19:36:44.167Z,25.88
2023-01-30T19:54:22.937Z,21.48
2023-01-30T19:57:22.474Z,23.70
2023-01-30T20:00:22.482Z,20.10
2023-01-30T20:03:20.218Z,20.38
2023-01-30T20:06:24.512Z,19.00
2023-01-30T20:09:22.223Z,17.83
2023-01-30T20:12:20.164Z,15.88
2023-01-30T20:15:19.237Z,17.27
2023-01-30T20:18:17.031Z,22.15
2023-01-30T20:21:18.082Z,17.92
2023-01-30T20:24:17.648Z,18.50
2023-01-30T20:27:15.608Z,17.50
2023-01-30T20:30:15.384Z,14.20
2023-01-30T20:33:13.873Z,15.30
2023-01-30T20:36:14.436Z,11.75
2023-01-30T20:39:12.827Z,11.20
2023-01-30T20:42:10.673Z,12.98
2023-01-30T20:45:09.207Z,13.73
2023-01-30T20:48:07.258Z,12.55
2023-01-30T20:51:09.386Z,13.80
2023-01-30T20:54:09.054Z,11.00
2023-01-30T20:57:06.839Z,12.88
2023-01-30T21:00:06.016Z,14.07
2023-01-30T21:03:04.188Z,34.53
2023-01-30T21:06:03.147Z,68.70
2023-01-30T21:09:01.416Z,55.38
2023-01-30T21:11:59.235Z,47.90
2023-01-30T21:14:56.908Z,43.30
2023-01-30T21:17:54.744Z,37.58
2023-01-30T21:20:52.417Z,41.30
2023-01-30T21:23:51.911Z,36.20
2023-01-30T21:26:50.146Z,37.55
2023-01-30T21:29:48.538Z,37.90
2023-01-30T21:32:46.507Z,35.25
2023-01-30T21:35:44.732Z,33.92
2023-01-30T21:39:00.300Z,30.83
2023-01-30T21:42:13.690Z,29.63
2023-01-30T21:45:12.501Z,28.05
2023-01-30T21:48:11.001Z,24.23
2023-01-30T21:51:14.546Z,22.38
2023-01-30T21:54:14.120Z,20.98
2023-01-30T21:57:12.181Z,21.15
2023-01-30T22:00:10.748Z,20.73
2023-01-30T22:03:08.443Z,15.35
2023-01-30T22:06:10.553Z,12.18
2023-01-30T22:09:09.008Z,13.35
2023-01-30T22:12:06.893Z,13.55
2023-01-30T22:15:04.830Z,12.85
2023-01-30T22:18:04.252Z,12.38
2023-01-30T22:21:05.138Z,14.75
2023-01-30T22:24:05.808Z,15.02
2023-01-30T22:27:05.735Z,15.88
2023-01-30T22:30:04.649Z,15.30
2023-01-30T22:33:06.528Z,13.57
2023-01-30T22:36:07.201Z,10.48
2023-01-30T22:39:05.942Z,9.65
2023-01-30T22:42:04.748Z,9.13
2023-01-30T22:45:02.622Z,7.60
2023-01-30T22:48:02.155Z,6.72
2023-01-30T22:51:05.384Z,8.55
2023-01-30T22:54:07.020Z,7.13
2023-01-30T22:57:04.725Z,7.93
2023-01-30T23:00:02.932Z,7.65
2023-01-30T23:03:01.363Z,8.40
2023-01-30T23:06:01.633Z,7.38
2023-01-30T23:09:02.359Z,8.07
2023-01-30T23:12:15.450Z,8.38
2023-01-30T23:18:26.647Z,7.50
2023-01-30T23:21:27.553Z,8.85
2023-01-30T23:24:25.343Z,7.93
2023-01-30T23:27:23.111Z,7.90
2023-01-30T23:30:20.945Z,7.97
2023-01-30T23:33:18.604Z,7.63
2023-01-30T23:36:16.539Z,6.35
2023-01-30T23:39:15.114Z,6.50
2023-01-30T23:42:12.909Z,6.55
2023-01-30T23:45:11.096Z,6.80
2023-01-30T23:48:09.835Z,6.28
2023-01-30T23:51:08.229Z,7.10
2023-01-30T23:54:06.823Z,6.13
2023-01-30T23:57:04.545Z,5.70
